MSC Vienna — A8CI9 — position and weather

sailwx.info

Track history (hours):
 
Tides and Currents Weather Stations Pressure Air Temp Water Temp Dewpoint Dewpoint Depression Visibility Wind Speed Wind Dir Waves Ship Positions

MSC Vienna

Last reported at 2017-Jun-24 14:45 UTC. Time now 2017-Jun-26 19:06 UTC.
Position N 37°37' E 023°47'.

Length 260.1 m; beam 32.2 m; draft 12 m.

Type: Ship (hazmat cat A). MMSI: 636090654.

Date/timePositionNaut miles runAvg speedWind from/ knotsBaromVisibWave heightAir tempDewpointWater temp
2017-Jun-24 14:45N 37°37' E 023°47'1012.9
2017-Jun-24 14:00N 37°44' E 023°40'713.1
2017-Jun-24 13:30N 37°51' E 023°36'612.2
2017-Jun-24 13:01N 37°57' E 023°36'1 2.3
2017-Jun-24 12:30N 37°57' E 023°35'0 0.0
2017-Jun-24 12:00N 37°57' E 023°35'0 0.0
2017-Jun-24 11:30N 37°57' E 023°35'0 0.0
2017-Jun-24 11:00N 37°57' E 023°35'0 0.0
2017-Jun-24 10:30N 37°57' E 023°35'0 0.0
2017-Jun-24 10:00N 37°57' E 023°35'0 0.0
2017-Jun-24 09:30N 37°57' E 023°35'0 0.0
2017-Jun-24 09:00N 37°57' E 023°35'0 0.0
2017-Jun-24 08:30N 37°57' E 023°35'0 0.0
2017-Jun-24 08:00N 37°57' E 023°35'0 0.0
2017-Jun-24 07:30N 37°57' E 023°35'0 0.0
2017-Jun-24 07:00N 37°57' E 023°35'0 0.0
2017-Jun-24 06:30N 37°57' E 023°35'0 0.0
2017-Jun-24 06:00N 37°57' E 023°35'0 0.0
2017-Jun-24 05:30N 37°57' E 023°35'0 0.0
2017-Jun-24 05:00N 37°57' E 023°35'0 0.0
2017-Jun-24 04:30N 37°57' E 023°35'0 0.0
2017-Jun-24 04:00N 37°57' E 023°35'0 0.0
2017-Jun-24 03:30N 37°57' E 023°35'0 0.0
2017-Jun-24 03:00N 37°57' E 023°35'0 0.0
2017-Jun-24 02:30N 37°57' E 023°35'0 0.0
2017-Jun-24 02:00N 37°57' E 023°35'0 0.0
2017-Jun-24 01:30N 37°57' E 023°35'0 0.0
2017-Jun-24 00:57N 37°57' E 023°35'0 0.0
2017-Jun-24 00:30N 37°57' E 023°35'0 0.0
2017-Jun-23 23:57N 37°57' E 023°35'0 0.0
2017-Jun-23 23:30N 37°57' E 023°35'0 0.0
2017-Jun-23 23:00N 37°57' E 023°35'0 0.0
2017-Jun-23 22:30N 37°57' E 023°35'0 0.1
2017-Jun-23 22:00N 37°57' E 023°35'1 2.7
2017-Jun-23 21:30N 37°56' E 023°35'1 2.7
2017-Jun-23 21:00N 37°55' E 023°36'3 6.0
2017-Jun-23 20:30N 37°53' E 023°38'713.5
2017-Jun-23 20:00N 37°46' E 023°41'713.2
2017-Jun-23 19:30N 37°41' E 023°45'612.8
2017-Jun-23 19:00N 37°35' E 023°48'612.4
2017-Jun-23 18:30N 37°29' E 023°50'713.1
2017-Jun-23 18:00N 37°22' E 023°49'713.2
2017-Jun-23 17:30N 37°15' E 023°48'612.8
2017-Jun-23 17:00N 37°09' E 023°47'612.7
2017-Jun-23 16:30N 37°03' E 023°46'612.4
2017-Jun-23 16:00N 36°57' E 023°46'612.5
2017-Jun-23 15:30N 36°50' E 023°45'612.8
2017-Jun-23 15:00N 36°44' E 023°42'713.6
2017-Jun-23 14:30N 36°38' E 023°39'349 8.0
2017-Jun-21 18:38N 35°57' E 016°29'112.2
2017-Jun-21 18:30N 35°57' E 016°27'6712.2
2017-Jun-21 12:58N 35°56' E 015°04'612.1
2017-Jun-21 12:30N 35°56' E 014°57'4 8.8
2017-Jun-21 12:00N 35°56' E 014°51'0 0.1
2017-Jun-21 11:31N 35°56' E 014°51'0 0.1
2017-Jun-21 10:58N 35°56' E 014°51'0 0.0
2017-Jun-21 10:25N 35°56' E 014°51'0 0.0
2017-Jun-21 10:01N 35°56' E 014°51'0 0.0
2017-Jun-21 09:31N 35°56' E 014°51'0 0.0
2017-Jun-21 09:01N 35°56' E 014°51'0 0.0
2017-Jun-21 08:31N 35°56' E 014°51'0 0.0
2017-Jun-21 07:58N 35°56' E 014°51'0 0.0
2017-Jun-21 07:31N 35°56' E 014°51'0 0.0
2017-Jun-21 06:43N 35°56' E 014°51'0 0.0
2017-Jun-21 06:28N 35°56' E 014°51'0 0.0
2017-Jun-21 05:58N 35°56' E 014°51'0 0.0
2017-Jun-21 05:31N 35°56' E 014°51'0 0.0
2017-Jun-21 05:01N 35°56' E 014°51'0 0.0
2017-Jun-21 04:28N 35°56' E 014°51'0 0.0
2017-Jun-21 04:01N 35°56' E 014°51'0 0.0
2017-Jun-21 03:28N 35°56' E 014°51'0 0.0
2017-Jun-21 02:58N 35°56' E 014°51'0 0.0
2017-Jun-21 02:28N 35°56' E 014°51'0 0.0
2017-Jun-21 02:01N 35°56' E 014°51'0 0.0
2017-Jun-21 00:46N 35°56' E 014°51'0 0.0
2017-Jun-21 00:25N 35°56' E 014°51'0 0.0
2017-Jun-21 00:01N 35°56' E 014°51'0 0.0
2017-Jun-20 23:31N 35°56' E 014°51'0 0.1
2017-Jun-20 23:01N 35°56' E 014°51'0 0.0
2017-Jun-20 22:01N 35°56' E 014°51'0 0.0
2017-Jun-20 21:28N 35°56' E 014°51'0 0.0
2017-Jun-20 21:01N 35°56' E 014°51'0 0.0
2017-Jun-20 20:31N 35°56' E 014°51'0 0.0
2017-Jun-20 19:58N 35°56' E 014°51'0 0.0
2017-Jun-20 19:28N 35°56' E 014°51'0 0.0
2017-Jun-20 18:37N 35°56' E 014°51'0 0.1
2017-Jun-20 18:31N 35°56' E 014°51'0 0.0
2017-Jun-20 17:58N 35°56' E 014°51'0 0.0
2017-Jun-20 17:31N 35°56' E 014°51'0 0.0
2017-Jun-20 17:01N 35°56' E 014°51'0 0.0
2017-Jun-20 16:31N 35°56' E 014°51'0 0.0
2017-Jun-20 16:01N 35°56' E 014°51'0 0.0
2017-Jun-20 15:31N 35°56' E 014°51'0 0.0
2017-Jun-20 15:01N 35°56' E 014°51'0 0.0
2017-Jun-20 14:19N 35°56' E 014°51'0 0.0
2017-Jun-20 13:22N 35°56' E 014°51'0 0.0
2017-Jun-20 13:01N 35°56' E 014°51'0 0.0
2017-Jun-20 12:16N 35°56' E 014°51'0 0.0
2017-Jun-20 02:37N 35°56' E 014°51'0 0.0
2017-Jun-20 02:28N 35°56' E 014°51'0 0.0
2017-Jun-20 01:52N 35°56' E 014°51'0 0.0
2017-Jun-20 01:31N 35°56' E 014°51'0 0.0
2017-Jun-20 00:58N 35°56' E 014°51'0 0.0
2017-Jun-20 00:28N 35°56' E 014°51'0 0.0
2017-Jun-20 00:01N 35°56' E 014°51'0 0.0
2017-Jun-19 23:28N 35°56' E 014°51'0 0.0
2017-Jun-19 23:01N 35°56' E 014°51'0 0.0
2017-Jun-19 22:31N 35°56' E 014°51'0 0.0
2017-Jun-19 22:01N 35°56' E 014°51'0 0.0
2017-Jun-19 21:22N 35°56' E 014°51'0 0.0
2017-Jun-19 20:58N 35°56' E 014°51'0 0.0
2017-Jun-19 20:31N 35°56' E 014°51'0 0.0
2017-Jun-19 18:58N 35°56' E 014°51'0 0.0
2017-Jun-19 18:25N 35°56' E 014°51'0 0.0
2017-Jun-19 17:31N 35°56' E 014°51'0 0.0
2017-Jun-18 04:43N 35°56' E 014°51'0 0.0
2017-Jun-18 04:28N 35°56' E 014°51'0 0.1
2017-Jun-18 03:58N 35°56' E 014°51'0 0.0
2017-Jun-18 01:31N 35°56' E 014°51'0 0.0
2017-Jun-18 00:19N 35°56' E 014°51'0 0.0
2017-Jun-18 00:01N 35°56' E 014°51'0 0.0
2017-Jun-17 23:13N 35°56' E 014°51'0 0.0
2017-Jun-17 22:52N 35°56' E 014°51'0 0.0
2017-Jun-17 22:31N 35°56' E 014°51'0 0.0
2017-Jun-17 21:58N 35°56' E 014°51'0 0.0
2017-Jun-17 21:31N 35°56' E 014°51'0 0.0
2017-Jun-17 20:58N 35°56' E 014°51'0 0.0
2017-Jun-17 20:31N 35°56' E 014°51'0 0.0
2017-Jun-17 20:01N 35°56' E 014°51'0 0.0
2017-Jun-17 19:28N 35°56' E 014°51'0 0.0
2017-Jun-17 18:52N 35°56' E 014°51'0 0.0
2017-Jun-17 18:25N 35°56' E 014°51'0 0.0
2017-Jun-17 18:01N 35°56' E 014°51'0 0.0
2017-Jun-17 17:28N 35°56' E 014°51'0 0.0
2017-Jun-17 16:58N 35°56' E 014°51'0 0.0
2017-Jun-17 16:22N 35°56' E 014°51'0 0.0
2017-Jun-17 15:52N 35°56' E 014°51'0 0.0
2017-Jun-17 15:10N 35°56' E 014°51'0 0.1
2017-Jun-17 15:01N 35°56' E 014°51'0 0.0
2017-Jun-17 14:28N 35°56' E 014°51'0 0.0
2017-Jun-17 13:25N 35°56' E 014°51'0 0.0
2017-Jun-17 13:01N 35°56' E 014°51'0 0.0
2017-Jun-17 12:31N 35°56' E 014°51'0 0.0
2017-Jun-17 11:58N 35°56' E 014°51'0 0.0
2017-Jun-17 11:28N 35°56' E 014°51'0 0.0
2017-Jun-17 11:01N 35°56' E 014°51'0 0.0
2017-Jun-17 10:31N 35°56' E 014°51'0 0.0
2017-Jun-17 09:58N 35°56' E 014°51'0 0.0
2017-Jun-17 09:31N 35°56' E 014°51'0 0.0
2017-Jun-17 09:01N 35°56' E 014°51'0 0.0
2017-Jun-17 08:31N 35°56' E 014°51'0 0.0
2017-Jun-17 07:55N 35°56' E 014°51'0 0.0
2017-Jun-17 07:31N 35°56' E 014°51'0 0.0
2017-Jun-17 07:01N 35°56' E 014°51'0 0.0
2017-Jun-17 06:19N 35°56' E 014°51'0 0.0
2017-Jun-17 05:55N 35°56' E 014°51'0 0.0
2017-Jun-17 05:31N 35°56' E 014°51'0 0.0
2017-Jun-17 05:01N 35°56' E 014°51'0 0.0
2017-Jun-17 04:28N 35°56' E 014°51'0 0.0
2017-Jun-17 03:58N 35°56' E 014°51'0 0.0
2017-Jun-17 03:25N 35°56' E 014°51'0 0.0
2017-Jun-17 02:58N 35°56' E 014°51'0 0.0
2017-Jun-17 02:28N 35°56' E 014°51'0 0.0
2017-Jun-17 02:01N 35°56' E 014°51'0 0.0
2017-Jun-17 01:31N 35°56' E 014°51'0 0.0
2017-Jun-17 00:58N 35°56' E 014°51'0 0.0
2017-Jun-17 00:31N 35°56' E 014°51'0 0.0
2017-Jun-16 23:58N 35°56' E 014°51'0 0.0
2017-Jun-16 23:28N 35°56' E 014°51'0 0.0
2017-Jun-16 22:58N 35°56' E 014°51'0 0.0
2017-Jun-16 22:31N 35°56' E 014°51'0 0.0
2017-Jun-16 22:01N 35°56' E 014°51'0 0.0
2017-Jun-16 21:31N 35°56' E 014°51'0 0.0
2017-Jun-16 21:01N 35°56' E 014°51'0 0.0
2017-Jun-16 20:31N 35°56' E 014°51'0 0.0
2017-Jun-16 20:01N 35°56' E 014°51'0 0.0
2017-Jun-16 19:31N 35°56' E 014°51'0 0.0
2017-Jun-16 18:58N 35°56' E 014°51'0 0.0
2017-Jun-16 18:28N 35°56' E 014°51'0 0.0
2017-Jun-16 17:58N 35°56' E 014°51'0 0.0
2017-Jun-16 17:28N 35°56' E 014°51'0 0.0
2017-Jun-16 17:01N 35°56' E 014°51'0 0.0
2017-Jun-16 16:28N 35°56' E 014°51'0 0.0
2017-Jun-16 16:01N 35°56' E 014°51'0 0.0
2017-Jun-16 15:31N 35°56' E 014°51'0 0.0
2017-Jun-16 15:01N 35°56' E 014°51'0 0.0
2017-Jun-16 14:25N 35°56' E 014°51'0 0.0
2017-Jun-16 13:28N 35°56' E 014°51'0 0.0
2017-Jun-16 12:52N 35°56' E 014°51'0 0.0
2017-Jun-16 12:31N 35°56' E 014°51'0 0.0
2017-Jun-16 11:58N 35°56' E 014°51'0 0.0
2017-Jun-16 11:25N 35°56' E 014°51'0 0.0
2017-Jun-16 11:01N 35°56' E 014°51'0 0.0
2017-Jun-16 10:31N 35°56' E 014°51'0 0.0
2017-Jun-16 10:01N 35°56' E 014°51'0 0.0
2017-Jun-16 09:28N 35°56' E 014°51'0 0.0
2017-Jun-16 09:01N 35°56' E 014°51'0 0.0
2017-Jun-16 08:28N 35°56' E 014°51'0 0.0
2017-Jun-16 08:01N 35°56' E 014°51'0 0.0
2017-Jun-16 07:28N 35°56' E 014°51'0 0.0
2017-Jun-16 06:58N 35°56' E 014°51'0 0.0
2017-Jun-16 06:31N 35°56' E 014°51'0 0.0
2017-Jun-16 06:01N 35°56' E 014°51'0 0.0
2017-Jun-16 05:28N 35°56' E 014°51'0 0.0
2017-Jun-16 04:58N 35°56' E 014°51'0 0.0
2017-Jun-16 04:28N 35°56' E 014°51'0 0.0
2017-Jun-16 04:01N 35°56' E 014°51'0 0.0
2017-Jun-16 03:31N 35°56' E 014°51'0 0.0
2017-Jun-16 02:58N 35°56' E 014°51'0 0.0
2017-Jun-16 02:31N 35°56' E 014°51'0 0.0
2017-Jun-16 02:01N 35°56' E 014°51'0 0.0
2017-Jun-16 01:31N 35°56' E 014°51'0 0.0
2017-Jun-16 01:01N 35°56' E 014°51'0 0.0
2017-Jun-16 00:31N 35°56' E 014°51'0 0.0
2017-Jun-15 23:55N 35°56' E 014°51'0 0.0
2017-Jun-15 23:22N 35°56' E 014°51'0 0.0
2017-Jun-15 22:58N 35°56' E 014°51'0 0.0
2017-Jun-15 22:31N 35°56' E 014°51'0 0.0
2017-Jun-15 21:13N 35°56' E 014°51'0 0.0
2017-Jun-15 20:58N 35°56' E 014°51'0 0.0
2017-Jun-15 20:28N 35°56' E 014°51'0 0.0
2017-Jun-15 19:55N 35°56' E 014°51'0 0.0
2017-Jun-15 19:28N 35°56' E 014°51'0 0.0
2017-Jun-15 18:58N 35°56' E 014°51'0 0.0
2017-Jun-15 18:28N 35°56' E 014°51'0 0.0
2017-Jun-15 17:58N 35°56' E 014°51'0 0.0
2017-Jun-15 17:28N 35°56' E 014°51'0 0.0
2017-Jun-15 16:55N 35°56' E 014°51'0 0.0
2017-Jun-15 16:28N 35°56' E 014°51'0 0.0
2017-Jun-15 15:52N 35°56' E 014°51'0 0.0
2017-Jun-15 15:25N 35°56' E 014°51'0 0.0
2017-Jun-15 14:55N 35°56' E 014°51'0 0.0
2017-Jun-15 14:31N 35°56' E 014°51'0 0.0
2017-Jun-15 13:07N 35°56' E 014°51'0 0.1
2017-Jun-15 13:01N 35°56' E 014°51'0 0.0
2017-Jun-15 12:31N 35°56' E 014°51'0 0.0
2017-Jun-15 11:58N 35°56' E 014°51'0 0.0
2017-Jun-15 11:28N 35°56' E 014°51'0 0.0
2017-Jun-15 10:58N 35°56' E 014°51'0 0.0
2017-Jun-15 10:28N 35°56' E 014°51'0 0.0
2017-Jun-15 09:58N 35°56' E 014°51'0 0.0
2017-Jun-15 09:28N 35°56' E 014°51'0 0.0
2017-Jun-15 08:58N 35°56' E 014°51'0 0.0
2017-Jun-15 08:28N 35°56' E 014°51'0 0.0
2017-Jun-15 07:58N 35°56' E 014°51'0 0.0
2017-Jun-15 07:28N 35°56' E 014°51'0 0.0
2017-Jun-15 06:58N 35°56' E 014°51'0 0.0
2017-Jun-15 06:28N 35°56' E 014°51'0 0.0
2017-Jun-15 05:58N 35°56' E 014°51'0 0.0
2017-Jun-15 05:28N 35°56' E 014°51'0 0.0
2017-Jun-15 04:58N 35°56' E 014°51'0 0.0
2017-Jun-15 04:28N 35°56' E 014°51'0 0.0
2017-Jun-15 03:58N 35°56' E 014°51'0 0.0
2017-Jun-15 03:28N 35°56' E 014°51'0 0.0
2017-Jun-15 02:55N 35°56' E 014°51'0 0.0
2017-Jun-15 02:25N 35°56' E 014°51'0 0.0
2017-Jun-15 01:58N 35°56' E 014°51'0 0.0
2017-Jun-15 01:28N 35°56' E 014°51'0 0.0
2017-Jun-15 00:58N 35°56' E 014°51'0 0.0
2017-Jun-15 00:25N 35°56' E 014°51'0 0.0
2017-Jun-14 23:58N 35°56' E 014°51'0 0.0
2017-Jun-14 23:28N 35°56' E 014°51'0 0.0
2017-Jun-14 22:58N 35°56' E 014°51'0 0.0
2017-Jun-14 22:28N 35°56' E 014°51'0 0.0
2017-Jun-14 21:58N 35°56' E 014°51'0 0.0
2017-Jun-14 21:28N 35°56' E 014°51'0 0.0
2017-Jun-14 20:58N 35°56' E 014°51'0 0.0
2017-Jun-14 20:25N 35°56' E 014°51'0 0.0
2017-Jun-14 19:22N 35°56' E 014°51'0 0.0
2017-Jun-14 18:52N 35°56' E 014°51'0 0.0
2017-Jun-14 18:28N 35°56' E 014°51'0 0.0
2017-Jun-14 17:52N 35°56' E 014°51'0 0.0
2017-Jun-14 17:28N 35°56' E 014°51'0 0.0
2017-Jun-14 16:46N 35°56' E 014°51'0 0.0
2017-Jun-14 16:25N 35°56' E 014°51'0 0.0
2017-Jun-14 15:58N 35°56' E 014°51'0 0.0
2017-Jun-14 15:25N 35°56' E 014°51'0 0.0
2017-Jun-14 14:58N 35°56' E 014°51'  
Track history (hours):
 
Tides and Currents Weather Stations Pressure Air Temp Water Temp Dewpoint Dewpoint Depression Visibility Wind Speed Wind Dir Waves Ship Positions

MSC Vienna

Last reported at 2017-Jun-24 14:45 UTC. Time now 2017-Jun-26 19:06 UTC.
Position N 37°37' E 023°47'.

Length 260.1 m; beam 32.2 m; draft 12 m.

Type: Ship (hazmat cat A). MMSI: 636090654.

Date/timePositionNaut miles runAvg speedWind from/ knotsBaromVisibWave heightAir tempDewpointWater temp
2017-Jun-24 14:45N 37°37' E 023°47'1012.9
2017-Jun-24 14:00N 37°44' E 023°40'713.1
2017-Jun-24 13:30N 37°51' E 023°36'612.2
2017-Jun-24 13:01N 37°57' E 023°36'1 2.3
2017-Jun-24 12:30N 37°57' E 023°35'0 0.0
2017-Jun-24 12:00N 37°57' E 023°35'0 0.0
2017-Jun-24 11:30N 37°57' E 023°35'0 0.0
2017-Jun-24 11:00N 37°57' E 023°35'0 0.0
2017-Jun-24 10:30N 37°57' E 023°35'0 0.0
2017-Jun-24 10:00N 37°57' E 023°35'0 0.0
2017-Jun-24 09:30N 37°57' E 023°35'0 0.0
2017-Jun-24 09:00N 37°57' E 023°35'0 0.0
2017-Jun-24 08:30N 37°57' E 023°35'0 0.0
2017-Jun-24 08:00N 37°57' E 023°35'0 0.0
2017-Jun-24 07:30N 37°57' E 023°35'0 0.0
2017-Jun-24 07:00N 37°57' E 023°35'0 0.0
2017-Jun-24 06:30N 37°57' E 023°35'0 0.0
2017-Jun-24 06:00N 37°57' E 023°35'0 0.0
2017-Jun-24 05:30N 37°57' E 023°35'0 0.0
2017-Jun-24 05:00N 37°57' E 023°35'0 0.0
2017-Jun-24 04:30N 37°57' E 023°35'0 0.0
2017-Jun-24 04:00N 37°57' E 023°35'0 0.0
2017-Jun-24 03:30N 37°57' E 023°35'0 0.0
2017-Jun-24 03:00N 37°57' E 023°35'0 0.0
2017-Jun-24 02:30N 37°57' E 023°35'0 0.0
2017-Jun-24 02:00N 37°57' E 023°35'0 0.0
2017-Jun-24 01:30N 37°57' E 023°35'0 0.0
2017-Jun-24 00:57N 37°57' E 023°35'0 0.0
2017-Jun-24 00:30N 37°57' E 023°35'0 0.0
2017-Jun-23 23:57N 37°57' E 023°35'0 0.0
2017-Jun-23 23:30N 37°57' E 023°35'0 0.0
2017-Jun-23 23:00N 37°57' E 023°35'0 0.0
2017-Jun-23 22:30N 37°57' E 023°35'0 0.1
2017-Jun-23 22:00N 37°57' E 023°35'1 2.7
2017-Jun-23 21:30N 37°56' E 023°35'1 2.7
2017-Jun-23 21:00N 37°55' E 023°36'3 6.0
2017-Jun-23 20:30N 37°53' E 023°38'713.5
2017-Jun-23 20:00N 37°46' E 023°41'713.2
2017-Jun-23 19:30N 37°41' E 023°45'612.8
2017-Jun-23 19:00N 37°35' E 023°48'612.4
2017-Jun-23 18:30N 37°29' E 023°50'713.1
2017-Jun-23 18:00N 37°22' E 023°49'713.2
2017-Jun-23 17:30N 37°15' E 023°48'612.8
2017-Jun-23 17:00N 37°09' E 023°47'612.7
2017-Jun-23 16:30N 37°03' E 023°46'612.4
2017-Jun-23 16:00N 36°57' E 023°46'612.5
2017-Jun-23 15:30N 36°50' E 023°45'612.8
2017-Jun-23 15:00N 36°44' E 023°42'713.6
2017-Jun-23 14:30N 36°38' E 023°39'349 8.0
2017-Jun-21 18:38N 35°57' E 016°29'112.2
2017-Jun-21 18:30N 35°57' E 016°27'6712.2
2017-Jun-21 12:58N 35°56' E 015°04'612.1
2017-Jun-21 12:30N 35°56' E 014°57'4 8.8
2017-Jun-21 12:00N 35°56' E 014°51'0 0.1
2017-Jun-21 11:31N 35°56' E 014°51'0 0.1
2017-Jun-21 10:58N 35°56' E 014°51'0 0.0
2017-Jun-21 10:25N 35°56' E 014°51'0 0.0
2017-Jun-21 10:01N 35°56' E 014°51'0 0.0
2017-Jun-21 09:31N 35°56' E 014°51'0 0.0
2017-Jun-21 09:01N 35°56' E 014°51'0 0.0
2017-Jun-21 08:31N 35°56' E 014°51'0 0.0
2017-Jun-21 07:58N 35°56' E 014°51'0 0.0
2017-Jun-21 07:31N 35°56' E 014°51'0 0.0
2017-Jun-21 06:43N 35°56' E 014°51'0 0.0
2017-Jun-21 06:28N 35°56' E 014°51'0 0.0
2017-Jun-21 05:58N 35°56' E 014°51'0 0.0
2017-Jun-21 05:31N 35°56' E 014°51'0 0.0
2017-Jun-21 05:01N 35°56' E 014°51'0 0.0
2017-Jun-21 04:28N 35°56' E 014°51'0 0.0
2017-Jun-21 04:01N 35°56' E 014°51'0 0.0
2017-Jun-21 03:28N 35°56' E 014°51'0 0.0
2017-Jun-21 02:58N 35°56' E 014°51'0 0.0
2017-Jun-21 02:28N 35°56' E 014°51'0 0.0
2017-Jun-21 02:01N 35°56' E 014°51'0 0.0
2017-Jun-21 00:46N 35°56' E 014°51'0 0.0
2017-Jun-21 00:25N 35°56' E 014°51'0 0.0
2017-Jun-21 00:01N 35°56' E 014°51'0 0.0
2017-Jun-20 23:31N 35°56' E 014°51'0 0.1
2017-Jun-20 23:01N 35°56' E 014°51'0 0.0
2017-Jun-20 22:01N 35°56' E 014°51'0 0.0
2017-Jun-20 21:28N 35°56' E 014°51'0 0.0
2017-Jun-20 21:01N 35°56' E 014°51'0 0.0
2017-Jun-20 20:31N 35°56' E 014°51'0 0.0
2017-Jun-20 19:58N 35°56' E 014°51'0 0.0
2017-Jun-20 19:28N 35°56' E 014°51'0 0.0
2017-Jun-20 18:37N 35°56' E 014°51'0 0.1
2017-Jun-20 18:31N 35°56' E 014°51'0 0.0
2017-Jun-20 17:58N 35°56' E 014°51'0 0.0
2017-Jun-20 17:31N 35°56' E 014°51'0 0.0
2017-Jun-20 17:01N 35°56' E 014°51'0 0.0
2017-Jun-20 16:31N 35°56' E 014°51'0 0.0
2017-Jun-20 16:01N 35°56' E 014°51'0 0.0
2017-Jun-20 15:31N 35°56' E 014°51'0 0.0
2017-Jun-20 15:01N 35°56' E 014°51'0 0.0
2017-Jun-20 14:19N 35°56' E 014°51'0 0.0
2017-Jun-20 13:22N 35°56' E 014°51'0 0.0
2017-Jun-20 13:01N 35°56' E 014°51'0 0.0
2017-Jun-20 12:16N 35°56' E 014°51'0 0.0
2017-Jun-20 02:37N 35°56' E 014°51'0 0.0
2017-Jun-20 02:28N 35°56' E 014°51'0 0.0
2017-Jun-20 01:52N 35°56' E 014°51'0 0.0
2017-Jun-20 01:31N 35°56' E 014°51'0 0.0
2017-Jun-20 00:58N 35°56' E 014°51'0 0.0
2017-Jun-20 00:28N 35°56' E 014°51'0 0.0
2017-Jun-20 00:01N 35°56' E 014°51'0 0.0
2017-Jun-19 23:28N 35°56' E 014°51'0 0.0
2017-Jun-19 23:01N 35°56' E 014°51'0 0.0
2017-Jun-19 22:31N 35°56' E 014°51'0 0.0
2017-Jun-19 22:01N 35°56' E 014°51'0 0.0
2017-Jun-19 21:22N 35°56' E 014°51'0 0.0
2017-Jun-19 20:58N 35°56' E 014°51'0 0.0
2017-Jun-19 20:31N 35°56' E 014°51'0 0.0
2017-Jun-19 18:58N 35°56' E 014°51'0 0.0
2017-Jun-19 18:25N 35°56' E 014°51'0 0.0
2017-Jun-19 17:31N 35°56' E 014°51'0 0.0
2017-Jun-18 04:43N 35°56' E 014°51'0 0.0
2017-Jun-18 04:28N 35°56' E 014°51'0 0.1
2017-Jun-18 03:58N 35°56' E 014°51'0 0.0
2017-Jun-18 01:31N 35°56' E 014°51'0 0.0
2017-Jun-18 00:19N 35°56' E 014°51'0 0.0
2017-Jun-18 00:01N 35°56' E 014°51'0 0.0
2017-Jun-17 23:13N 35°56' E 014°51'0 0.0
2017-Jun-17 22:52N 35°56' E 014°51'0 0.0
2017-Jun-17 22:31N 35°56' E 014°51'0 0.0
2017-Jun-17 21:58N 35°56' E 014°51'0 0.0
2017-Jun-17 21:31N 35°56' E 014°51'0 0.0
2017-Jun-17 20:58N 35°56' E 014°51'0 0.0
2017-Jun-17 20:31N 35°56' E 014°51'0 0.0
2017-Jun-17 20:01N 35°56' E 014°51'0 0.0
2017-Jun-17 19:28N 35°56' E 014°51'0 0.0
2017-Jun-17 18:52N 35°56' E 014°51'0 0.0
2017-Jun-17 18:25N 35°56' E 014°51'0 0.0
2017-Jun-17 18:01N 35°56' E 014°51'0 0.0
2017-Jun-17 17:28N 35°56' E 014°51'0 0.0
2017-Jun-17 16:58N 35°56' E 014°51'0 0.0
2017-Jun-17 16:22N 35°56' E 014°51'0 0.0
2017-Jun-17 15:52N 35°56' E 014°51'0 0.0
2017-Jun-17 15:10N 35°56' E 014°51'0 0.1
2017-Jun-17 15:01N 35°56' E 014°51'0 0.0
2017-Jun-17 14:28N 35°56' E 014°51'0 0.0
2017-Jun-17 13:25N 35°56' E 014°51'0 0.0
2017-Jun-17 13:01N 35°56' E 014°51'0 0.0
2017-Jun-17 12:31N 35°56' E 014°51'0 0.0
2017-Jun-17 11:58N 35°56' E 014°51'0 0.0
2017-Jun-17 11:28N 35°56' E 014°51'0 0.0
2017-Jun-17 11:01N 35°56' E 014°51'0 0.0
2017-Jun-17 10:31N 35°56' E 014°51'0 0.0
2017-Jun-17 09:58N 35°56' E 014°51'0 0.0
2017-Jun-17 09:31N 35°56' E 014°51'0 0.0
2017-Jun-17 09:01N 35°56' E 014°51'0 0.0
2017-Jun-17 08:31N 35°56' E 014°51'0 0.0
2017-Jun-17 07:55N 35°56' E 014°51'0 0.0
2017-Jun-17 07:31N 35°56' E 014°51'0 0.0
2017-Jun-17 07:01N 35°56' E 014°51'0 0.0
2017-Jun-17 06:19N 35°56' E 014°51'0 0.0
2017-Jun-17 05:55N 35°56' E 014°51'0 0.0
2017-Jun-17 05:31N 35°56' E 014°51'0 0.0
2017-Jun-17 05:01N 35°56' E 014°51'0 0.0
2017-Jun-17 04:28N 35°56' E 014°51'0 0.0
2017-Jun-17 03:58N 35°56' E 014°51'0 0.0
2017-Jun-17 03:25N 35°56' E 014°51'0 0.0
2017-Jun-17 02:58N 35°56' E 014°51'0 0.0
2017-Jun-17 02:28N 35°56' E 014°51'0 0.0
2017-Jun-17 02:01N 35°56' E 014°51'0 0.0
2017-Jun-17 01:31N 35°56' E 014°51'0 0.0
2017-Jun-17 00:58N 35°56' E 014°51'0 0.0
2017-Jun-17 00:31N 35°56' E 014°51'0 0.0
2017-Jun-16 23:58N 35°56' E 014°51'0 0.0
2017-Jun-16 23:28N 35°56' E 014°51'0 0.0
2017-Jun-16 22:58N 35°56' E 014°51'0 0.0
2017-Jun-16 22:31N 35°56' E 014°51'0 0.0
2017-Jun-16 22:01N 35°56' E 014°51'0 0.0
2017-Jun-16 21:31N 35°56' E 014°51'0 0.0
2017-Jun-16 21:01N 35°56' E 014°51'0 0.0
2017-Jun-16 20:31N 35°56' E 014°51'0 0.0
2017-Jun-16 20:01N 35°56' E 014°51'0 0.0
2017-Jun-16 19:31N 35°56' E 014°51'0 0.0
2017-Jun-16 18:58N 35°56' E 014°51'0 0.0
2017-Jun-16 18:28N 35°56' E 014°51'0 0.0
2017-Jun-16 17:58N 35°56' E 014°51'0 0.0
2017-Jun-16 17:28N 35°56' E 014°51'0 0.0
2017-Jun-16 17:01N 35°56' E 014°51'0 0.0
2017-Jun-16 16:28N 35°56' E 014°51'0 0.0
2017-Jun-16 16:01N 35°56' E 014°51'0 0.0
2017-Jun-16 15:31N 35°56' E 014°51'0 0.0
2017-Jun-16 15:01N 35°56' E 014°51'0 0.0
2017-Jun-16 14:25N 35°56' E 014°51'0 0.0
2017-Jun-16 13:28N 35°56' E 014°51'0 0.0
2017-Jun-16 12:52N 35°56' E 014°51'0 0.0
2017-Jun-16 12:31N 35°56' E 014°51'0 0.0
2017-Jun-16 11:58N 35°56' E 014°51'0 0.0
2017-Jun-16 11:25N 35°56' E 014°51'0 0.0
2017-Jun-16 11:01N 35°56' E 014°51'0 0.0
2017-Jun-16 10:31N 35°56' E 014°51'0 0.0
2017-Jun-16 10:01N 35°56' E 014°51'0 0.0
2017-Jun-16 09:28N 35°56' E 014°51'0 0.0
2017-Jun-16 09:01N 35°56' E 014°51'0 0.0
2017-Jun-16 08:28N 35°56' E 014°51'0 0.0
2017-Jun-16 08:01N 35°56' E 014°51'0 0.0
2017-Jun-16 07:28N 35°56' E 014°51'0 0.0
2017-Jun-16 06:58N 35°56' E 014°51'0 0.0
2017-Jun-16 06:31N 35°56' E 014°51'0 0.0
2017-Jun-16 06:01N 35°56' E 014°51'0 0.0
2017-Jun-16 05:28N 35°56' E 014°51'0 0.0
2017-Jun-16 04:58N 35°56' E 014°51'0 0.0
2017-Jun-16 04:28N 35°56' E 014°51'0 0.0
2017-Jun-16 04:01N 35°56' E 014°51'0 0.0
2017-Jun-16 03:31N 35°56' E 014°51'0 0.0
2017-Jun-16 02:58N 35°56' E 014°51'0 0.0
2017-Jun-16 02:31N 35°56' E 014°51'0 0.0
2017-Jun-16 02:01N 35°56' E 014°51'0 0.0
2017-Jun-16 01:31N 35°56' E 014°51'0 0.0
2017-Jun-16 01:01N 35°56' E 014°51'0 0.0
2017-Jun-16 00:31N 35°56' E 014°51'0 0.0
2017-Jun-15 23:55N 35°56' E 014°51'0 0.0
2017-Jun-15 23:22N 35°56' E 014°51'0 0.0
2017-Jun-15 22:58N 35°56' E 014°51'0 0.0
2017-Jun-15 22:31N 35°56' E 014°51'0 0.0
2017-Jun-15 21:13N 35°56' E 014°51'0 0.0
2017-Jun-15 20:58N 35°56' E 014°51'0 0.0
2017-Jun-15 20:28N 35°56' E 014°51'0 0.0
2017-Jun-15 19:55N 35°56' E 014°51'0 0.0
2017-Jun-15 19:28N 35°56' E 014°51'0 0.0
2017-Jun-15 18:58N 35°56' E 014°51'0 0.0
2017-Jun-15 18:28N 35°56' E 014°51'0 0.0
2017-Jun-15 17:58N 35°56' E 014°51'0 0.0
2017-Jun-15 17:28N 35°56' E 014°51'0 0.0
2017-Jun-15 16:55N 35°56' E 014°51'0 0.0
2017-Jun-15 16:28N 35°56' E 014°51'0 0.0
2017-Jun-15 15:52N 35°56' E 014°51'0 0.0
2017-Jun-15 15:25N 35°56' E 014°51'0 0.0
2017-Jun-15 14:55N 35°56' E 014°51'0 0.0
2017-Jun-15 14:31N 35°56' E 014°51'0 0.0
2017-Jun-15 13:07N 35°56' E 014°51'0 0.1
2017-Jun-15 13:01N 35°56' E 014°51'0 0.0
2017-Jun-15 12:31N 35°56' E 014°51'0 0.0
2017-Jun-15 11:58N 35°56' E 014°51'0 0.0
2017-Jun-15 11:28N 35°56' E 014°51'0 0.0
2017-Jun-15 10:58N 35°56' E 014°51'0 0.0
2017-Jun-15 10:28N 35°56' E 014°51'0 0.0
2017-Jun-15 09:58N 35°56' E 014°51'0 0.0
2017-Jun-15 09:28N 35°56' E 014°51'0 0.0
2017-Jun-15 08:58N 35°56' E 014°51'0 0.0
2017-Jun-15 08:28N 35°56' E 014°51'0 0.0
2017-Jun-15 07:58N 35°56' E 014°51'0 0.0
2017-Jun-15 07:28N 35°56' E 014°51'0 0.0
2017-Jun-15 06:58N 35°56' E 014°51'0 0.0
2017-Jun-15 06:28N 35°56' E 014°51'0 0.0
2017-Jun-15 05:58N 35°56' E 014°51'0 0.0
2017-Jun-15 05:28N 35°56' E 014°51'0 0.0
2017-Jun-15 04:58N 35°56' E 014°51'0 0.0
2017-Jun-15 04:28N 35°56' E 014°51'0 0.0
2017-Jun-15 03:58N 35°56' E 014°51'0 0.0
2017-Jun-15 03:28N 35°56' E 014°51'0 0.0
2017-Jun-15 02:55N 35°56' E 014°51'0 0.0
2017-Jun-15 02:25N 35°56' E 014°51'0 0.0
2017-Jun-15 01:58N 35°56' E 014°51'0 0.0
2017-Jun-15 01:28N 35°56' E 014°51'0 0.0
2017-Jun-15 00:58N 35°56' E 014°51'0 0.0
2017-Jun-15 00:25N 35°56' E 014°51'0 0.0
2017-Jun-14 23:58N 35°56' E 014°51'0 0.0
2017-Jun-14 23:28N 35°56' E 014°51'0 0.0
2017-Jun-14 22:58N 35°56' E 014°51'0 0.0
2017-Jun-14 22:28N 35°56' E 014°51'0 0.0
2017-Jun-14 21:58N 35°56' E 014°51'0 0.0
2017-Jun-14 21:28N 35°56' E 014°51'0 0.0
2017-Jun-14 20:58N 35°56' E 014°51'0 0.0
2017-Jun-14 20:25N 35°56' E 014°51'0 0.0
2017-Jun-14 19:22N 35°56' E 014°51'0 0.0
2017-Jun-14 18:52N 35°56' E 014°51'0 0.0
2017-Jun-14 18:28N 35°56' E 014°51'0 0.0
2017-Jun-14 17:52N 35°56' E 014°51'0 0.0
2017-Jun-14 17:28N 35°56' E 014°51'0 0.0
2017-Jun-14 16:46N 35°56' E 014°51'0 0.0
2017-Jun-14 16:25N 35°56' E 014°51'0 0.0
2017-Jun-14 15:58N 35°56' E 014°51'0 0.0
2017-Jun-14 15:25N 35°56' E 014°51'0 0.0
2017-Jun-14 14:58N 35°56' E 014°51'  

Dump ship's entire track history